Sheshebee, Minnesota
Current Conditions -  °F | °C
As of 8:07 AM on Friday 19 Dec 2014 (Local Time) from KHZX Reporting Station
Overcast Overcast  
Wind Chill: 15°   Ceiling: 10000
Heat Index: 21°   Visibility: 7mi
Dew Point: 19°   Wind: 5mph
Humidity: 93%   Direction: 140°SE
Pressure: 30.2"   Gusts: NA
Location:  46.7232°N, 93.3159°W
Report Text: KHZX 191407Z AUTO 14004KT 7SM SCT028 SCT033 OVC100 M06/M07 A3020 RMK AO2
Loading
Personal Weather Stations






























Interactive Weather Map New forecast layout! Learn more

10-Day Weather Forecast

Advertisements
Track Severe Weather on mobile